Time;durP1;ratioP1;P1;durP2;ratioP2;P2;SDS_P1;SDS_P2;PMS_P1;PMS_P2;Temp;Humidity;BMP_temperature;BMP_pressure;BME280_temperature;BME280_humidity;BME280_pressure;Samples;Min_cycle;Max_cycle;Signal;HPM_P1;HPM_P2
2022/12/13 00:02:17;;;;;;;44.25;17.63;;;-9.50;99.90;;;;;;5012025;28;20068;-60
2022/12/13 00:04:42;;;;;;;32.13;17.67;;;-9.50;99.90;;;;;;5011662;28;20477;-60
2022/12/13 00:07:08;;;;;;;47.72;17.55;;;-9.50;99.90;;;;;;5010829;28;20497;-59
2022/12/13 00:09:34;;;;;;;41.38;19.05;;;-9.60;99.90;;;;;;5011318;28;20026;-59
2022/12/13 00:11:59;;;;;;;34.05;15.77;;;-9.70;99.90;;;;;;5010521;28;20056;-58
2022/12/13 00:14:25;;;;;;;37.15;15.55;;;-9.80;99.90;;;;;;5009573;28;20033;-58
2022/12/13 00:16:51;;;;;;;35.28;16.75;;;-9.90;99.90;;;;;;5010849;28;20065;-61
2022/12/13 00:19:17;;;;;;;39.28;16.95;;;-9.90;99.90;;;;;;5010953;28;20649;-60
2022/12/13 00:21:43;;;;;;;36.75;17.27;;;-10.00;99.90;;;;;;5011071;28;20022;-58
2022/12/13 00:24:08;;;;;;;38.72;17.88;;;-10.10;99.90;;;;;;5010765;28;20041;-60
2022/12/13 00:26:34;;;;;;;44.97;19.92;;;-10.00;99.90;;;;;;5009751;28;20033;-60
2022/12/13 00:29:03;;;;;;;40.90;17.88;;;-10.10;99.90;;;;;;5010489;28;20030;-60
2022/12/13 00:31:30;;;;;;;38.45;17.92;;;-10.10;99.90;;;;;;5011130;28;20026;-59
2022/12/13 00:33:57;;;;;;;45.13;20.25;;;-10.00;99.90;;;;;;5009951;28;20026;-58
2022/12/13 00:36:23;;;;;;;55.25;24.02;;;-10.00;99.90;;;;;;5010088;28;20026;-58
2022/12/13 00:38:59;;;;;;;46.42;21.08;;;-10.00;99.90;;;;;;5009122;28;20036;-59
2022/12/13 00:41:27;;;;;;;44.63;21.15;;;-9.90;99.90;;;;;;5010512;28;20413;-58
2022/12/13 00:43:53;;;;;;;51.08;19.98;;;-9.90;99.90;;;;;;5010125;28;20061;-60
2022/12/13 00:46:21;;;;;;;47.67;19.60;;;-9.90;99.90;;;;;;5010093;28;20061;-58
2022/12/13 00:48:52;;;;;;;48.83;20.52;;;-10.00;99.90;;;;;;5009343;28;20409;-59
2022/12/13 00:51:22;;;;;;;42.40;19.90;;;-10.00;99.90;;;;;;5010212;28;20413;-59
2022/12/13 00:53:48;;;;;;;41.13;18.83;;;-9.90;99.90;;;;;;5009306;28;20026;-57
2022/12/13 00:56:17;;;;;;;46.72;19.50;;;-9.90;99.90;;;;;;5009780;28;20040;-58
2022/12/13 00:58:43;;;;;;;64.65;27.25;;;-9.90;99.90;;;;;;5010370;28;20030;-60
2022/12/13 01:01:11;;;;;;;69.70;28.08;;;-9.90;99.90;;;;;;5010183;28;20034;-58
2022/12/13 01:03:37;;;;;;;53.15;21.30;;;-9.80;99.90;;;;;;5010397;28;20025;-59
2022/12/13 01:06:16;;;;;;;45.42;20.55;;;-9.80;99.90;;;;;;5009905;28;20038;-58
2022/12/13 01:08:42;;;;;;;44.15;18.73;;;-9.80;99.90;;;;;;5009538;28;20402;-57
2022/12/13 01:11:08;;;;;;;45.28;20.02;;;-9.80;99.90;;;;;;5010345;28;20074;-58
2022/12/13 01:13:34;;;;;;;93.25;32.38;;;-9.70;99.90;;;;;;5009994;28;20044;-59
2022/12/13 01:16:02;;;;;;;55.22;24.00;;;-9.70;99.90;;;;;;5009244;28;20033;-59
2022/12/13 01:18:28;;;;;;;37.50;18.05;;;-9.70;99.90;;;;;;5011152;28;20026;-58
2022/12/13 01:21:05;;;;;;;47.33;19.27;;;-9.70;99.90;;;;;;5009275;28;20040;-58
2022/12/13 01:23:31;;;;;;;43.47;17.77;;;-9.80;99.90;;;;;;5010036;28;20069;-58
2022/12/13 01:25:57;;;;;;;35.38;16.80;;;-9.80;99.90;;;;;;5009384;28;20113;-58
2022/12/13 01:28:24;;;;;;;41.88;17.25;;;-9.80;99.90;;;;;;5009117;28;20116;-58
2022/12/13 01:30:56;;;;;;;39.05;17.00;;;-9.80;99.90;;;;;;5009658;28;20022;-59
2022/12/13 01:33:22;;;;;;;34.47;17.95;;;-9.90;99.90;;;;;;4995537;28;20033;-58
2022/12/13 01:35:48;;;;;;;40.30;15.82;;;-9.90;99.90;;;;;;4980683;28;20053;-60
2022/12/13 01:38:14;;;;;;;30.58;15.05;;;-10.00;99.90;;;;;;5009099;28;20121;-59
2022/12/13 01:40:48;;;;;;;28.33;15.38;;;-10.10;99.90;;;;;;5006248;28;20029;-59
2022/12/13 01:43:15;;;;;;;36.20;17.52;;;-10.20;99.90;;;;;;5007675;28;20068;-59
2022/12/13 01:45:41;;;;;;;37.25;16.48;;;-10.20;99.90;;;;;;5009028;28;20037;-58
2022/12/13 01:48:16;;;;;;;37.42;16.10;;;-10.30;99.90;;;;;;5008991;28;20113;-58
2022/12/13 01:50:48;;;;;;;47.25;19.40;;;-10.30;99.90;;;;;;4991781;28;20306;-59
2022/12/13 01:53:20;;;;;;;40.22;18.27;;;-10.30;99.90;;;;;;5009218;28;20041;-57
2022/12/13 01:55:52;;;;;;;31.60;16.35;;;-10.30;99.90;;;;;;5008760;28;20037;-60
2022/12/13 01:58:18;;;;;;;39.63;16.02;;;-10.30;99.90;;;;;;5014194;28;20022;-57
2022/12/13 02:00:46;;;;;;;37.65;16.45;;;-10.30;99.90;;;;;;5009941;28;20032;-58
2022/12/13 02:03:12;;;;;;;37.55;16.73;;;-10.30;99.90;;;;;;5007618;28;20422;-58
2022/12/13 02:05:43;;;;;;;35.08;17.23;;;-10.30;99.90;;;;;;5008361;28;20030;-59
2022/12/13 02:08:11;;;;;;;35.80;16.55;;;-10.30;99.90;;;;;;5008664;28;20037;-60
2022/12/13 02:10:37;;;;;;;35.38;16.00;;;-10.40;99.90;;;;;;5007806;28;20095;-58
2022/12/13 02:13:04;;;;;;;38.08;16.73;;;-10.40;99.90;;;;;;5008923;28;20087;-58
2022/12/13 02:15:53;;;;;;;44.40;20.17;;;-10.40;99.90;;;;;;5008548;28;20486;-58
2022/12/13 02:18:44;;;;;;;39.78;18.17;;;-10.40;99.90;;;;;;5008439;28;20065;-60
2022/12/13 02:21:24;;;;;;;27.85;15.18;;;-10.40;99.90;;;;;;5008202;28;20034;-58
2022/12/13 02:24:04;;;;;;;36.30;16.52;;;-10.50;99.90;;;;;;5008897;28;20030;-59
2022/12/13 02:26:55;;;;;;;40.92;15.98;;;-10.50;99.90;;;;;;5007666;28;20397;-59
2022/12/13 02:29:39;;;;;;;43.00;17.60;;;-10.50;99.90;;;;;;5007891;28;20034;-59
2022/12/13 02:32:14;;;;;;;41.53;16.30;;;-10.50;99.90;;;;;;5007442;28;20835;-58
2022/12/13 02:34:58;;;;;;;33.28;15.93;;;-10.50;99.90;;;;;;5008861;28;20076;-59
2022/12/13 02:37:32;;;;;;;34.40;17.42;;;-10.50;99.90;;;;;;5008018;28;20537;-60
2022/12/13 02:40:19;;;;;;;37.88;17.55;;;-10.50;99.90;;;;;;5008054;28;20121;-58
2022/12/13 02:43:01;;;;;;;33.33;15.60;;;-10.50;99.90;;;;;;5008765;28;20429;-58
2022/12/13 02:45:52;;;;;;;40.45;16.65;;;-10.50;99.90;;;;;;5007680;28;20069;-59
2022/12/13 02:48:24;;;;;;;41.30;16.92;;;-10.60;99.90;;;;;;4980389;28;20132;-59
2022/12/13 02:50:51;;;;;;;36.13;16.88;;;-10.50;99.90;;;;;;5007872;28;20080;-58
2022/12/13 02:53:20;;;;;;;38.55;17.98;;;-10.50;99.90;;;;;;5008057;28;20496;-58
2022/12/13 02:55:46;;;;;;;47.65;21.80;;;-10.50;99.90;;;;;;5007349;28;20077;-57
2022/12/13 02:58:14;;;;;;;39.60;16.75;;;-10.50;99.90;;;;;;5008201;28;20099;-59
2022/12/13 03:00:49;;;;;;;33.15;15.18;;;-10.60;99.90;;;;;;5007755;28;20014;-58
2022/12/13 03:04:00;;;;;;;31.38;15.00;;;-10.60;99.90;;;;;;4983081;28;20120;-60
2022/12/13 03:06:57;;;;;;;33.28;15.23;;;-10.60;99.90;;;;;;5002881;28;20040;-59
2022/12/13 03:09:31;;;;;;;33.63;16.48;;;-10.70;99.90;;;;;;5006919;28;20044;-58
2022/12/13 03:15:29;;;;;;;35.25;16.63;;;-10.70;99.90;;;;;;5007248;28;20180;-57
2022/12/13 03:17:58;;;;;;;33.47;14.77;;;-10.80;99.90;;;;;;5007906;28;20490;-60
2022/12/13 03:20:26;;;;;;;36.10;14.40;;;-10.80;99.90;;;;;;5007349;28;20120;-60
2022/12/13 03:22:53;;;;;;;23.08;12.63;;;-10.90;99.90;;;;;;5008002;28;20087;-58
2022/12/13 03:25:21;;;;;;;33.28;15.02;;;-10.90;99.90;;;;;;5006988;28;20030;-57
2022/12/13 03:27:47;;;;;;;27.63;13.80;;;-10.90;99.90;;;;;;5007949;28;20057;-58
2022/12/13 03:30:13;;;;;;;33.03;14.77;;;-10.90;99.90;;;;;;5008833;28;20061;-59
2022/12/13 03:32:38;;;;;;;32.00;14.27;;;-11.00;99.90;;;;;;5011108;28;20436;-59
2022/12/13 03:35:05;;;;;;;36.45;15.88;;;-11.00;99.90;;;;;;5011620;28;20030;-57
2022/12/13 03:37:30;;;;;;;32.38;13.98;;;-11.00;99.90;;;;;;5011125;28;20049;-58
2022/12/13 03:39:56;;;;;;;35.00;14.98;;;-11.10;99.90;;;;;;5009971;28;20509;-58
2022/12/13 03:42:22;;;;;;;34.05;14.18;;;-11.10;99.90;;;;;;5011011;28;20036;-58
2022/12/13 03:44:47;;;;;;;28.83;13.85;;;-11.10;99.90;;;;;;4994709;28;20045;-59
2022/12/13 03:47:13;;;;;;;31.58;14.50;;;-11.20;99.90;;;;;;5010287;28;20145;-59
2022/12/13 03:49:39;;;;;;;33.83;14.98;;;-11.10;99.90;;;;;;5009887;28;20030;-58
2022/12/13 03:52:04;;;;;;;30.85;14.75;;;-11.20;99.90;;;;;;5009671;28;20040;-59
2022/12/13 03:54:30;;;;;;;34.85;15.00;;;-11.20;99.90;;;;;;5011062;28;20057;-58
2022/12/13 03:56:56;;;;;;;34.47;14.35;;;-11.10;99.90;;;;;;5009449;28;20018;-57
2022/12/13 03:59:22;;;;;;;27.60;12.57;;;-11.10;99.90;;;;;;5009291;28;20033;-58
2022/12/13 04:01:48;;;;;;;24.10;13.80;;;-11.10;99.90;;;;;;5009897;28;20501;-59
2022/12/13 04:04:13;;;;;;;34.72;15.82;;;-11.10;99.90;;;;;;5009825;28;20050;-58
2022/12/13 04:06:39;;;;;;;33.83;13.65;;;-11.10;99.90;;;;;;5010615;28;20105;-58
2022/12/13 04:09:04;;;;;;;35.95;15.25;;;-11.10;99.90;;;;;;5010609;28;20033;-59
2022/12/13 04:14:14;;;;;;;43.17;15.55;;;-11.00;99.90;;;;;;5009817;28;20048;-58
2022/12/13 04:16:40;;;;;;;31.35;14.60;;;-11.00;99.90;;;;;;5009948;28;20034;-58
2022/12/13 04:19:06;;;;;;;28.95;13.77;;;-11.00;99.90;;;;;;5009714;28;20060;-60
2022/12/13 04:21:32;;;;;;;31.50;15.07;;;-10.90;99.90;;;;;;5009044;28;20049;-59
2022/12/13 04:23:57;;;;;;;32.28;13.30;;;-11.00;99.90;;;;;;5009380;28;20061;-59
2022/12/13 04:26:23;;;;;;;28.63;13.98;;;-11.00;99.90;;;;;;5009098;28;20041;-57
2022/12/13 04:28:48;;;;;;;27.92;12.45;;;-11.00;99.90;;;;;;5009173;28;20026;-58
2022/12/13 04:31:14;;;;;;;27.55;13.90;;;-11.00;99.90;;;;;;5017070;28;20038;-59
2022/12/13 04:33:39;;;;;;;27.98;11.95;;;-11.00;99.90;;;;;;5009858;28;20096;-58
2022/12/13 04:36:05;;;;;;;26.13;12.50;;;-11.00;99.90;;;;;;5010904;28;20037;-58
2022/12/13 04:38:31;;;;;;;24.30;11.53;;;-11.00;99.90;;;;;;4971669;28;1091408;-59
2022/12/13 04:41:07;;;;;;;33.17;13.70;;;-11.10;99.90;;;;;;5010247;28;20257;-59
2022/12/13 04:43:33;;;;;;;28.23;13.15;;;-11.10;99.90;;;;;;5010146;28;20523;-59
2022/12/13 04:45:58;;;;;;;24.92;13.20;;;-11.20;99.90;;;;;;5009920;28;20018;-59
2022/12/13 04:48:24;;;;;;;28.10;13.13;;;-11.30;99.90;;;;;;5010904;28;20033;-57
2022/12/13 04:50:50;;;;;;;38.13;13.60;;;-11.40;99.90;;;;;;5009855;28;20049;-58
2022/12/13 04:53:16;;;;;;;29.90;13.68;;;-11.40;99.90;;;;;;5010626;28;20042;-59
2022/12/13 04:55:41;;;;;;;28.90;14.98;;;-11.40;99.90;;;;;;5000033;28;20030;-58
2022/12/13 04:58:07;;;;;;;29.08;12.65;;;-11.40;99.90;;;;;;5008930;28;20723;-57
2022/12/13 05:00:32;;;;;;;27.45;13.55;;;-11.40;99.90;;;;;;5010600;28;20032;-59
2022/12/13 05:02:58;;;;;;;26.42;13.48;;;-11.40;99.90;;;;;;5009727;28;20033;-60
2022/12/13 05:05:24;;;;;;;24.00;12.82;;;-11.40;99.90;;;;;;5009917;28;20117;-59
2022/12/13 05:07:49;;;;;;;29.42;12.43;;;-11.40;99.90;;;;;;5009397;28;20065;-57
2022/12/13 05:10:15;;;;;;;28.58;12.45;;;-11.50;99.90;;;;;;5009845;28;20030;-59
2022/12/13 05:12:41;;;;;;;28.25;13.27;;;-11.50;99.90;;;;;;5010539;28;20057;-59
2022/12/13 05:15:07;;;;;;;25.77;13.18;;;-11.50;99.90;;;;;;5009260;28;20573;-61
2022/12/13 05:17:33;;;;;;;31.85;13.50;;;-11.50;99.90;;;;;;5009883;28;20039;-58
2022/12/13 05:19:59;;;;;;;24.67;14.88;;;-11.50;99.90;;;;;;5014649;28;20560;-59
2022/12/13 05:22:25;;;;;;;32.70;15.70;;;-11.50;99.90;;;;;;5009843;28;20034;-59
2022/12/13 05:24:51;;;;;;;50.50;20.58;;;-11.50;99.90;;;;;;5010144;28;20049;-58
2022/12/13 05:27:16;;;;;;;44.60;17.80;;;-11.50;99.90;;;;;;5009841;28;20030;-58
2022/12/13 05:29:42;;;;;;;29.42;15.65;;;-11.50;99.90;;;;;;5009602;28;20026;-59
2022/12/13 05:32:08;;;;;;;39.63;16.20;;;-11.50;99.90;;;;;;5008995;28;20029;-59
2022/12/13 05:34:33;;;;;;;38.85;17.10;;;-11.50;99.90;;;;;;5009709;28;20033;-59
2022/12/13 05:36:59;;;;;;;35.05;15.73;;;-11.50;99.90;;;;;;5009424;28;20029;-57
2022/12/13 05:39:25;;;;;;;27.10;13.40;;;-11.60;99.90;;;;;;5009469;28;20026;-58
2022/12/13 05:41:50;;;;;;;28.65;13.38;;;-11.60;99.90;;;;;;5009743;28;20026;-58
2022/12/13 05:44:16;;;;;;;30.90;15.02;;;-11.60;99.90;;;;;;5008852;28;20022;-60
2022/12/13 05:46:41;;;;;;;44.78;18.83;;;-11.60;99.90;;;;;;5009545;28;20024;-59
2022/12/13 05:49:07;;;;;;;35.90;15.77;;;-11.60;99.90;;;;;;5010378;28;20033;-58
2022/12/13 05:51:33;;;;;;;29.80;15.77;;;-11.60;99.90;;;;;;5009305;28;20401;-58
2022/12/13 05:53:58;;;;;;;27.30;14.10;;;-11.60;99.90;;;;;;5008824;28;20125;-59
2022/12/13 05:56:24;;;;;;;30.50;14.68;;;-11.60;99.90;;;;;;4995988;28;20045;-58
2022/12/13 05:58:50;;;;;;;35.90;15.52;;;-11.50;99.90;;;;;;5008659;28;20662;-58
2022/12/13 06:01:15;;;;;;;38.38;14.15;;;-11.50;99.90;;;;;;5010336;28;20029;-59
2022/12/13 06:03:42;;;;;;;37.05;15.60;;;-11.50;99.90;;;;;;5009386;28;20030;-60
2022/12/13 06:06:10;;;;;;;34.17;15.85;;;-11.50;99.90;;;;;;5007620;28;20044;-58
2022/12/13 06:08:36;;;;;;;24.50;13.18;;;-11.40;99.90;;;;;;5008586;28;20034;-58
2022/12/13 06:11:03;;;;;;;34.08;15.35;;;-11.40;99.90;;;;;;5008672;28;20032;-58
2022/12/13 06:13:28;;;;;;;28.92;13.20;;;-11.40;99.90;;;;;;5008585;28;20041;-59
2022/12/13 06:15:59;;;;;;;35.30;13.68;;;-11.40;99.90;;;;;;5008763;28;20030;-59
2022/12/13 06:18:24;;;;;;;23.45;12.68;;;-11.40;99.90;;;;;;5009660;28;20030;-59
2022/12/13 06:20:58;;;;;;;24.02;11.13;;;-11.50;99.90;;;;;;5008656;28;20060;-58
2022/12/13 06:23:23;;;;;;;24.27;11.70;;;-11.50;99.90;;;;;;5008828;28;20040;-60
2022/12/13 06:25:49;;;;;;;23.35;11.60;;;-11.50;99.90;;;;;;5008617;28;20034;-59
2022/12/13 06:28:15;;;;;;;20.95;12.05;;;-11.60;99.90;;;;;;5009060;28;20138;-57
2022/12/13 06:30:41;;;;;;;25.23;11.38;;;-11.70;99.90;;;;;;5009128;28;20026;-57
2022/12/13 06:33:07;;;;;;;19.23;10.70;;;-11.70;99.90;;;;;;5007972;28;20044;-58
2022/12/13 06:35:33;;;;;;;23.00;11.30;;;-11.80;99.90;;;;;;5008331;28;20037;-57
2022/12/13 06:37:59;;;;;;;20.98;12.38;;;-11.80;99.90;;;;;;5008109;28;20046;-60
2022/12/13 06:40:24;;;;;;;26.35;12.48;;;-11.80;99.90;;;;;;5008357;28;20022;-58
2022/12/13 06:42:50;;;;;;;30.73;12.77;;;-11.80;99.90;;;;;;5008552;28;20033;-59
2022/12/13 06:45:16;;;;;;;28.02;12.90;;;-11.90;99.90;;;;;;5008620;28;20104;-58
2022/12/13 06:47:41;;;;;;;21.08;12.13;;;-11.80;99.90;;;;;;5008689;28;20033;-58
2022/12/13 06:50:08;;;;;;;22.30;12.23;;;-11.80;99.90;;;;;;5007759;28;20425;-60
2022/12/13 06:52:34;;;;;;;28.45;13.20;;;-11.90;99.90;;;;;;5008163;28;20137;-58
2022/12/13 06:55:00;;;;;;;35.45;16.80;;;-11.80;99.90;;;;;;5008492;28;20439;-59
2022/12/13 06:57:25;;;;;;;30.58;15.00;;;-11.80;99.90;;;;;;5007289;28;20026;-59
2022/12/13 06:59:51;;;;;;;32.30;15.13;;;-11.80;99.90;;;;;;5008465;28;20033;-57
2022/12/13 07:02:17;;;;;;;32.45;16.75;;;-11.80;99.90;;;;;;5008110;28;20030;-59
2022/12/13 07:04:43;;;;;;;34.08;15.40;;;-11.70;99.90;;;;;;5008355;28;20529;-60
2022/12/13 07:07:08;;;;;;;29.42;15.57;;;-11.70;99.90;;;;;;5008026;28;20522;-56
2022/12/13 07:09:34;;;;;;;30.08;13.23;;;-11.60;99.90;;;;;;5008640;28;20125;-59
2022/12/13 07:12:00;;;;;;;26.48;12.70;;;-11.60;99.90;;;;;;5008108;28;20049;-58
2022/12/13 07:14:26;;;;;;;20.00;12.32;;;-11.60;99.90;;;;;;5007768;28;20404;-59
2022/12/13 07:16:51;;;;;;;25.25;12.50;;;-11.60;99.90;;;;;;5007941;28;20030;-59
2022/12/13 07:19:17;;;;;;;22.30;12.35;;;-11.70;99.90;;;;;;5008286;28;20034;-59
2022/12/13 07:21:43;;;;;;;28.60;12.07;;;-11.70;99.90;;;;;;5008305;28;20268;-57
2022/12/13 07:24:08;;;;;;;27.95;11.85;;;-11.70;99.90;;;;;;5011972;28;20117;-58
2022/12/13 07:26:34;;;;;;;19.40;11.07;;;-11.70;99.90;;;;;;5007414;28;20409;-59
2022/12/13 07:28:59;;;;;;;28.67;12.73;;;-11.60;99.90;;;;;;5008076;28;20034;-60
2022/12/13 07:31:25;;;;;;;22.15;11.23;;;-11.60;99.90;;;;;;4997716;28;20030;-59
2022/12/13 07:33:51;;;;;;;19.40;11.05;;;-11.70;99.90;;;;;;5006950;28;20030;-59
2022/12/13 07:36:19;;;;;;;31.85;13.43;;;-11.60;99.90;;;;;;5007611;28;20026;-60
2022/12/13 07:38:53;;;;;;;25.67;12.75;;;-11.60;99.90;;;;;;5006856;28;20042;-60
2022/12/13 07:41:20;;;;;;;34.25;15.13;;;-11.60;99.90;;;;;;5007543;28;20085;-58
2022/12/13 07:43:45;;;;;;;30.83;15.15;;;-11.50;99.90;;;;;;5007613;28;20037;-60
2022/12/13 07:46:11;;;;;;;41.80;15.43;;;-11.40;99.90;;;;;;5007401;28;20026;-59
2022/12/13 07:48:37;;;;;;;30.02;14.40;;;-11.30;99.90;;;;;;5008269;28;20022;-59
2022/12/13 07:51:06;;;;;;;36.85;17.08;;;-11.20;99.90;;;;;;5007096;28;20057;-61
2022/12/13 07:53:33;;;;;;;44.13;17.50;;;-11.20;99.90;;;;;;5007232;28;20041;-58
2022/12/13 07:56:03;;;;;;;36.75;16.63;;;-11.10;99.90;;;;;;5006702;28;20130;-58
2022/12/13 07:58:29;;;;;;;39.83;16.48;;;-11.00;99.90;;;;;;5008240;28;20022;-58
2022/12/13 08:01:00;;;;;;;41.88;17.77;;;-10.80;99.90;;;;;;5007659;28;20087;-58
2022/12/13 08:03:26;;;;;;;55.28;20.98;;;-10.70;99.90;;;;;;5007687;28;20375;-57
2022/12/13 08:06:11;;;;;;;28.27;12.93;;;-10.60;99.90;;;;;;5007154;28;20034;-59
2022/12/13 08:08:37;;;;;;;34.38;15.65;;;-10.60;99.90;;;;;;5006920;28;20042;-58
2022/12/13 08:11:11;;;;;;;28.42;15.07;;;-10.60;99.90;;;;;;5007405;28;20036;-58
2022/12/13 08:13:38;;;;;;;42.65;16.40;;;-10.50;99.90;;;;;;5005954;28;20038;-59
2022/12/13 08:16:06;;;;;;;29.23;15.68;;;-10.50;99.90;;;;;;5007807;28;20083;-59
2022/12/13 08:18:32;;;;;;;39.17;18.42;;;-10.40;99.90;;;;;;5011504;28;20068;-62
2022/12/13 08:21:03;;;;;;;40.50;19.55;;;-10.30;99.90;;;;;;5010196;28;20040;-60
2022/12/13 08:23:32;;;;;;;38.30;17.20;;;-10.20;99.90;;;;;;5011271;28;20026;-58
2022/12/13 08:25:58;;;;;;;44.88;18.77;;;-10.20;99.90;;;;;;5010882;28;20030;-59
2022/12/13 08:28:25;;;;;;;35.88;15.65;;;-10.00;99.90;;;;;;5008057;28;20026;-60
2022/12/13 08:30:51;;;;;;;31.45;15.68;;;-10.00;99.90;;;;;;5011155;28;20093;-59
2022/12/13 08:33:17;;;;;;;38.15;15.70;;;-9.80;99.90;;;;;;5011348;28;20030;-59
2022/12/13 08:35:43;;;;;;;34.38;16.20;;;-9.80;99.90;;;;;;5010050;28;20034;-57
2022/12/13 08:38:09;;;;;;;49.22;17.77;;;-9.70;99.90;;;;;;5010972;28;20072;-58
2022/12/13 08:40:35;;;;;;;29.50;14.80;;;-9.70;99.90;;;;;;5010637;28;20026;-58
2022/12/13 08:43:01;;;;;;;32.60;14.32;;;-9.70;99.90;;;;;;5010759;28;20121;-59
2022/12/13 08:45:27;;;;;;;37.38;15.50;;;-9.70;99.90;;;;;;5010827;28;20119;-59
2022/12/13 08:47:55;;;;;;;26.25;14.02;;;-9.60;99.90;;;;;;5009531;28;20073;-58
2022/12/13 08:50:21;;;;;;;35.95;14.48;;;-9.60;99.90;;;;;;5009890;28;20100;-58
2022/12/13 08:52:46;;;;;;;32.55;15.57;;;-9.40;99.90;;;;;;5009734;28;20407;-59
2022/12/13 08:55:14;;;;;;;43.13;17.20;;;-9.30;99.90;;;;;;5010672;28;20030;-59
2022/12/13 08:57:41;;;;;;;60.95;20.98;;;-9.20;99.90;;;;;;5009647;28;20105;-59
2022/12/13 09:00:13;;;;;;;48.17;19.30;;;-9.10;99.90;;;;;;5009970;28;20041;-58
2022/12/13 09:02:39;;;;;;;45.95;19.83;;;-9.00;99.90;;;;;;5009722;28;20030;-59
2022/12/13 09:05:07;;;;;;;99.32;31.00;;;-8.90;99.90;;;;;;5009752;28;20048;-58
2022/12/13 09:07:34;;;;;;;116.35;35.70;;;-8.70;99.90;;;;;;5009541;28;20512;-60
2022/12/13 09:10:00;;;;;;;29.00;15.68;;;-8.30;99.90;;;;;;5010780;28;20104;-60
2022/12/13 09:12:26;;;;;;;38.13;15.50;;;-7.80;99.90;;;;;;5010531;28;20018;-61
2022/12/13 09:14:52;;;;;;;28.35;14.10;;;-7.10;99.90;;;;;;5009987;28;20030;-61
2022/12/13 09:17:17;;;;;;;25.73;14.40;;;-6.10;99.90;;;;;;5008718;28;20049;-59
2022/12/13 09:19:43;;;;;;;23.90;13.88;;;-4.90;99.90;;;;;;5010339;28;20033;-60
2022/12/13 09:22:09;;;;;;;25.30;14.20;;;-3.70;99.90;;;;;;5010707;28;20033;-60
2022/12/13 09:24:34;;;;;;;19.92;13.10;;;-2.50;99.90;;;;;;5013506;28;20073;-60
2022/12/13 09:27:00;;;;;;;27.98;14.25;;;-1.40;99.90;;;;;;5008311;28;20084;-59
2022/12/13 09:29:25;;;;;;;21.13;14.73;;;-0.80;99.90;;;;;;5008133;28;20044;-61
2022/12/13 09:31:51;;;;;;;19.50;13.50;;;-0.30;99.90;;;;;;5008711;28;20054;-58
2022/12/13 09:34:16;;;;;;;17.73;13.38;;;-0.40;95.60;;;;;;5009658;28;20441;-59
2022/12/13 09:36:42;;;;;;;17.92;13.68;;;-0.80;98.20;;;;;;5009602;28;20185;-57
2022/12/13 09:39:10;;;;;;;20.30;14.07;;;-0.80;99.90;;;;;;5020161;28;20184;-60
2022/12/13 09:41:46;;;;;;;18.83;13.38;;;-0.80;93.30;;;;;;5009129;28;20045;-61
2022/12/13 09:44:27;;;;;;;16.95;13.93;;;-0.70;97.50;;;;;;5008218;28;20092;-59
2022/12/13 09:46:54;;;;;;;14.03;12.47;;;-0.20;99.90;;;;;;5009532;28;20116;-60
2022/12/13 09:49:20;;;;;;;21.50;13.10;;;0.20;99.90;;;;;;5009127;28;20272;-59
2022/12/13 09:51:51;;;;;;;20.55;13.32;;;0.90;99.90;;;;;;5009993;28;20389;-59
2022/12/13 09:54:24;;;;;;;19.05;11.90;;;1.30;94.10;;;;;;4987475;28;20583;-59
2022/12/13 09:56:50;;;;;;;12.55;9.60;;;1.50;87.60;;;;;;5008803;28;20034;-58
2022/12/13 09:59:29;;;;;;;13.02;9.50;;;1.70;87.30;;;;;;5009238;28;20079;-58
2022/12/13 10:02:01;;;;;;;13.75;10.85;;;1.50;87.90;;;;;;5008672;28;20494;-58
2022/12/13 10:04:27;;;;;;;;;;;1.00;82.50;;;;;;5008444;28;20037;-57
2022/12/13 10:06:53;;;;;;;13.68;10.90;;;1.00;88.30;;;;;;5007994;28;19991;-58
2022/12/13 10:09:19;;;;;;;12.82;10.40;;;1.50;93.90;;;;;;5008873;28;20018;-59
2022/12/13 10:11:52;;;;;;;15.30;10.70;;;1.50;92.10;;;;;;5008069;28;20030;-57
2022/12/13 10:14:32;;;;;;;12.45;9.10;;;1.60;92.90;;;;;;5008752;28;20037;-58
2022/12/13 10:17:01;;;;;;;10.88;9.73;;;1.50;85.60;;;;;;4996710;28;20549;-57
2022/12/13 10:19:39;;;;;;;10.23;8.45;;;1.80;92.90;;;;;;5006931;28;20041;-58
2022/12/13 10:22:10;;;;;;;10.13;8.20;;;1.60;89.30;;;;;;5007909;28;20022;-57
2022/12/13 10:24:56;;;;;;;12.68;9.32;;;1.70;91.20;;;;;;5007892;28;20040;-58
2022/12/13 10:27:39;;;;;;;10.60;9.30;;;1.90;93.70;;;;;;5006881;28;20038;-58
2022/12/13 10:30:15;;;;;;;13.25;9.98;;;2.30;93.20;;;;;;5008560;28;20183;-59
2022/12/13 10:32:57;;;;;;;14.18;10.05;;;2.40;89.60;;;;;;5008148;28;20034;-61
2022/12/13 10:35:33;;;;;;;14.63;11.43;;;2.40;91.40;;;;;;5007606;28;20046;-56
2022/12/13 10:38:01;;;;;;;18.88;13.63;;;2.30;89.80;;;;;;5008635;28;20502;-58
2022/12/13 10:40:35;;;;;;;17.23;12.65;;;2.30;83.40;;;;;;5009419;28;20022;-60
2022/12/13 10:43:10;;;;;;;8.95;7.68;;;2.20;88.70;;;;;;5007562;28;20014;-57
2022/12/13 10:45:35;;;;;;;12.23;8.80;;;1.90;86.20;;;;;;5009523;28;20569;-59
2022/12/13 10:48:03;;;;;;;9.63;6.75;;;1.70;88.60;;;;;;5008268;28;20056;-59
2022/12/13 10:50:29;;;;;;;13.10;7.72;;;1.20;99.60;;;;;;5008480;28;20088;-58
2022/12/13 10:52:57;;;;;;;8.98;6.78;;;0.60;91.90;;;;;;5006688;28;20057;-62
2022/12/13 10:55:36;;;;;;;7.90;6.95;;;0.60;99.90;;;;;;5008592;28;20112;-60
2022/12/13 10:58:08;;;;;;;8.20;6.90;;;0.50;99.90;;;;;;5007469;28;20038;-62
2022/12/13 11:00:36;;;;;;;6.82;5.32;;;0.30;98.80;;;;;;4990881;28;20018;-61
2022/12/13 11:03:02;;;;;;;9.18;7.65;;;-0.30;99.90;;;;;;5008397;28;20096;-61
2022/12/13 11:05:32;;;;;;;13.35;7.63;;;-0.40;99.90;;;;;;5007495;28;20029;-61
2022/12/13 11:08:22;;;;;;;10.00;6.60;;;-0.20;99.90;;;;;;5008517;28;20026;-60
2022/12/13 11:11:05;;;;;;;9.18;6.45;;;0.00;99.90;;;;;;4996622;28;20034;-61
2022/12/13 11:13:52;;;;;;;7.15;6.43;;;-0.20;99.90;;;;;;5008171;28;20767;-59
2022/12/13 11:16:26;;;;;;;6.68;5.03;;;-0.50;99.90;;;;;;5005524;28;20553;-58
2022/12/13 11:18:56;;;;;;;5.53;4.25;;;-1.00;99.90;;;;;;5007878;28;20022;-60
2022/12/13 11:21:25;;;;;;;5.55;4.30;;;-1.40;99.90;;;;;;5007644;28;20026;-60
2022/12/13 11:23:52;;;;;;;7.35;5.47;;;-1.70;99.90;;;;;;5007838;28;20022;-58
2022/12/13 11:26:21;;;;;;;6.97;5.43;;;-2.00;99.90;;;;;;5007584;28;20026;-61
2022/12/13 11:29:33;;;;;;;6.15;5.13;;;-2.20;99.90;;;;;;5007061;28;20092;-61
2022/12/13 11:32:19;;;;;;;10.13;6.20;;;-2.30;99.90;;;;;;5007881;28;20036;-61
2022/12/13 11:34:50;;;;;;;9.65;7.13;;;-2.40;99.90;;;;;;5007504;28;20034;-58
2022/12/13 11:37:35;;;;;;;9.07;6.93;;;-2.40;99.90;;;;;;5007849;28;20120;-60
2022/12/13 11:40:08;;;;;;;10.32;7.03;;;-2.40;99.90;;;;;;5007291;28;20443;-59
2022/12/13 11:43:12;;;;;;;10.05;6.95;;;-2.30;99.90;;;;;;5007608;28;20022;-61
2022/12/13 11:45:53;;;;;;;9.45;7.65;;;-2.30;99.90;;;;;;4951219;28;20042;-59
2022/12/13 11:48:24;;;;;;;9.90;7.57;;;-2.20;99.90;;;;;;5007678;28;20037;-61
2022/12/13 11:50:51;;;;;;;;;;;-2.00;99.90;;;;;;5008230;28;20037;-61
2022/12/13 11:53:19;;;;;;;11.82;7.07;;;-1.80;99.90;;;;;;5011287;28;20028;-60
2022/12/13 11:55:53;;;;;;;8.80;6.35;;;-1.70;99.90;;;;;;5011663;28;20026;-59
2022/12/13 11:58:32;;;;;;;8.80;6.20;;;-1.50;99.90;;;;;;5011679;28;20115;-60
2022/12/13 12:01:12;;;;;;;9.85;6.65;;;-1.30;99.90;;;;;;5011789;28;20030;-60
2022/12/13 12:03:46;;;;;;;9.85;7.47;;;-1.20;99.90;;;;;;5012280;28;20187;-61
2022/12/13 12:06:34;;;;;;;9.45;6.95;;;-1.00;99.90;;;;;;5010996;28;20034;-59
2022/12/13 12:09:03;;;;;;;8.52;6.95;;;-1.00;99.90;;;;;;5010338;28;20049;-59
2022/12/13 12:11:52;;;;;;;13.23;6.72;;;-0.90;99.90;;;;;;5010999;28;20034;-60
2022/12/13 12:14:27;;;;;;;13.52;6.97;;;-0.70;99.90;;;;;;5011073;28;20038;-61
2022/12/13 12:16:58;;;;;;;10.68;7.85;;;-0.30;99.90;;;;;;5010632;28;20026;-59
2022/12/13 12:19:36;;;;;;;8.05;6.47;;;0.10;99.90;;;;;;4994846;28;20540;-61
2022/12/13 12:22:07;;;;;;;12.35;6.70;;;0.40;99.90;;;;;;4998626;28;20045;-59
2022/12/13 12:24:58;;;;;;;10.07;7.45;;;0.70;99.90;;;;;;5010136;28;20421;-59
2022/12/13 12:27:43;;;;;;;10.43;7.90;;;1.00;99.90;;;;;;4966504;28;20042;-61
2022/12/13 12:30:17;;;;;;;8.88;7.20;;;1.20;99.90;;;;;;5007990;28;20033;-59
2022/12/13 12:32:55;;;;;;;13.57;7.53;;;1.40;99.10;;;;;;5009425;28;20038;-63
2022/12/13 12:35:38;;;;;;;9.35;6.97;;;1.50;99.90;;;;;;5007912;28;20057;-61
2022/12/13 12:38:13;;;;;;;9.45;7.15;;;1.60;99.90;;;;;;5008882;28;20026;-61
2022/12/13 12:41:31;;;;;;;8.15;5.95;;;1.80;99.90;;;;;;5009344;28;20034;-60
2022/12/13 12:44:11;;;;;;;10.93;8.95;;;1.90;92.70;;;;;;4978489;28;20143;-59
2022/12/13 12:47:08;;;;;;;10.75;7.15;;;1.80;92.10;;;;;;5007881;28;20185;-59